createdAt,value
2017-06-15T00:00:24.715Z,966.86
2017-06-15T00:01:24.714Z,966.87
2017-06-15T00:02:24.711Z,966.88
2017-06-15T00:03:24.711Z,966.85
2017-06-15T00:04:24.711Z,966.88
2017-06-15T00:05:24.708Z,966.93
2017-06-15T00:06:24.707Z,966.9
2017-06-15T00:07:24.707Z,966.94
2017-06-15T00:08:24.705Z,966.95
2017-06-15T00:09:24.702Z,966.94
2017-06-15T00:10:24.703Z,966.92
2017-06-15T00:11:24.701Z,966.94
2017-06-15T00:12:24.699Z,966.97
2017-06-15T00:13:24.699Z,966.98
2017-06-15T00:14:24.697Z,966.98
2017-06-15T00:15:24.697Z,967.02
2017-06-15T00:16:24.695Z,967.02
2017-06-15T00:17:24.694Z,967.03
2017-06-15T00:18:24.692Z,967.04
2017-06-15T00:19:24.691Z,967.02
2017-06-15T00:20:24.689Z,967.07
2017-06-15T00:21:24.688Z,967.09
2017-06-15T00:22:24.687Z,967.09
2017-06-15T00:23:24.686Z,967.1
2017-06-15T00:24:24.683Z,967.1
2017-06-15T00:25:24.683Z,967.09
2017-06-15T00:26:24.682Z,967.06
2017-06-15T00:27:24.679Z,967.05
2017-06-15T00:28:24.678Z,967.04
2017-06-15T00:29:24.677Z,967.05
2017-06-15T00:30:24.678Z,967.02
2017-06-15T00:31:24.674Z,967.02
2017-06-15T00:32:24.674Z,967.03
2017-06-15T00:33:24.671Z,967
2017-06-15T00:34:24.704Z,967.07
2017-06-15T00:35:24.671Z,967.05
2017-06-15T00:36:24.670Z,967.09
2017-06-15T00:37:24.667Z,967.07
2017-06-15T00:38:24.665Z,967.07
2017-06-15T00:39:24.665Z,967.08
2017-06-15T00:40:24.665Z,967.1
2017-06-15T00:41:24.663Z,967.06
2017-06-15T00:42:24.662Z,967.1
2017-06-15T00:43:24.660Z,967.09
2017-06-15T00:44:24.659Z,967.09
2017-06-15T00:45:24.656Z,967.04
2017-06-15T00:46:24.657Z,967.05
2017-06-15T00:47:24.656Z,967.04
2017-06-15T00:48:24.654Z,967.05
2017-06-15T00:49:24.652Z,967.07
2017-06-15T00:50:24.649Z,967.04
2017-06-15T00:51:24.649Z,967.06
2017-06-15T00:52:24.649Z,967.05
2017-06-15T00:53:24.647Z,967.07
2017-06-15T00:54:24.646Z,967.08
2017-06-15T00:55:24.643Z,967.06
2017-06-15T00:56:24.640Z,967.07
2017-06-15T00:57:24.640Z,967.04
2017-06-15T00:58:24.641Z,967.05
2017-06-15T00:59:24.639Z,967.08
2017-06-15T01:00:24.637Z,967.08
2017-06-15T01:01:24.634Z,967.08
2017-06-15T01:02:24.634Z,967.09
2017-06-15T01:03:24.635Z,967.13
2017-06-15T01:04:24.634Z,967.11
2017-06-15T01:05:24.631Z,967.12
2017-06-15T01:06:24.629Z,967.14
2017-06-15T01:07:24.627Z,967.15
2017-06-15T01:08:24.626Z,967.14
2017-06-15T01:09:24.629Z,967.13
2017-06-15T01:10:24.626Z,967.18
2017-06-15T01:11:24.622Z,967.17
2017-06-15T01:12:24.621Z,967.17
2017-06-15T01:13:24.619Z,967.19
2017-06-15T01:14:24.618Z,967.17
2017-06-15T01:15:24.619Z,967.19
2017-06-15T01:16:24.615Z,967.19
2017-06-15T01:17:24.616Z,967.16
2017-06-15T01:18:24.613Z,967.22
2017-06-15T01:19:24.612Z,967.22
2017-06-15T01:20:24.614Z,967.23
2017-06-15T01:21:24.610Z,967.2
2017-06-15T01:22:24.608Z,967.25
2017-06-15T01:23:24.607Z,967.22
2017-06-15T01:24:24.606Z,967.2
2017-06-15T01:25:24.603Z,967.2
2017-06-15T01:26:24.603Z,967.16
2017-06-15T01:27:24.601Z,967.21
2017-06-15T01:28:24.601Z,967.25
2017-06-15T01:29:24.599Z,967.24
2017-06-15T01:30:24.595Z,967.27
2017-06-15T01:31:24.595Z,967.24
2017-06-15T01:32:24.595Z,967.24
2017-06-15T01:33:24.593Z,967.2
2017-06-15T01:34:24.591Z,967.24
2017-06-15T01:35:24.590Z,967.25
2017-06-15T01:36:24.587Z,967.23
2017-06-15T01:37:24.588Z,967.28
2017-06-15T01:38:24.586Z,967.3
2017-06-15T01:39:24.585Z,967.27
2017-06-15T01:40:24.584Z,967.33
2017-06-15T01:41:24.580Z,967.34
2017-06-15T01:42:24.581Z,967.33
2017-06-15T01:43:24.579Z,967.32
2017-06-15T01:44:24.578Z,967.33
2017-06-15T01:45:24.576Z,967.32
2017-06-15T01:46:24.575Z,967.35
2017-06-15T01:47:24.574Z,967.35
2017-06-15T01:48:24.571Z,967.3
2017-06-15T01:49:24.572Z,967.33
2017-06-15T01:50:24.571Z,967.31
2017-06-15T01:51:24.570Z,967.31
2017-06-15T01:52:24.568Z,967.34
2017-06-15T01:53:24.565Z,967.33
2017-06-15T01:54:24.562Z,967.35
2017-06-15T01:55:24.561Z,967.3
2017-06-15T01:56:24.562Z,967.34
2017-06-15T01:57:24.561Z,967.37
2017-06-15T01:58:24.557Z,967.37
2017-06-15T01:59:24.555Z,967.42
2017-06-15T02:00:24.556Z,967.38
2017-06-15T02:01:24.555Z,967.39
2017-06-15T02:02:24.552Z,967.4
2017-06-15T02:03:24.550Z,967.39
2017-06-15T02:04:24.549Z,967.4
2017-06-15T02:05:24.548Z,967.41
2017-06-15T02:06:24.546Z,967.4
2017-06-15T02:07:24.545Z,967.42
2017-06-15T02:08:24.544Z,967.49
2017-06-15T02:09:24.542Z,967.44
2017-06-15T02:10:24.540Z,967.49
2017-06-15T02:11:24.541Z,967.5
2017-06-15T02:12:24.539Z,967.52
2017-06-15T02:13:24.536Z,967.5
2017-06-15T02:14:24.534Z,967.48
2017-06-15T02:15:24.532Z,967.49
2017-06-15T02:16:24.532Z,967.48
2017-06-15T02:17:24.531Z,967.49
2017-06-15T02:18:24.530Z,967.46
2017-06-15T02:19:24.529Z,967.47
2017-06-15T02:20:24.527Z,967.46
2017-06-15T02:21:24.524Z,967.42
2017-06-15T02:22:24.525Z,967.47
2017-06-15T02:23:24.523Z,967.46
2017-06-15T02:24:24.520Z,967.46
2017-06-15T02:25:24.519Z,967.51
2017-06-15T02:26:24.518Z,967.5
2017-06-15T02:27:24.516Z,967.47
2017-06-15T02:28:24.515Z,967.51
2017-06-15T02:29:24.514Z,967.51
2017-06-15T02:30:24.512Z,967.54
2017-06-15T02:31:24.511Z,967.5
2017-06-15T02:32:24.508Z,967.51
2017-06-15T02:33:24.540Z,967.51
2017-06-15T02:34:24.506Z,967.52
2017-06-15T02:35:24.508Z,967.5
2017-06-15T02:36:24.504Z,967.49
2017-06-15T02:37:24.502Z,967.52
2017-06-15T02:38:24.499Z,967.51
2017-06-15T02:39:24.500Z,967.52
2017-06-15T02:40:24.498Z,967.54
2017-06-15T02:41:24.498Z,967.55
2017-06-15T02:42:24.495Z,967.59
2017-06-15T02:43:24.494Z,967.52
2017-06-15T02:44:24.492Z,967.56
2017-06-15T02:45:24.492Z,967.56
2017-06-15T02:46:24.490Z,967.52
2017-06-15T02:47:24.488Z,967.53
2017-06-15T02:48:24.488Z,967.52
2017-06-15T02:49:24.485Z,967.53
2017-06-15T02:50:24.483Z,967.54
2017-06-15T02:51:24.483Z,967.53
2017-06-15T02:52:24.480Z,967.53
2017-06-15T02:53:24.478Z,967.56
2017-06-15T02:54:24.478Z,967.54
2017-06-15T02:55:24.476Z,967.57
2017-06-15T02:56:24.477Z,967.54
2017-06-15T02:57:24.473Z,967.55
2017-06-15T02:58:24.471Z,967.57
2017-06-15T02:59:24.471Z,967.58
2017-06-15T03:00:24.469Z,967.6
2017-06-15T03:01:24.465Z,967.57
2017-06-15T03:02:24.465Z,967.63
2017-06-15T03:03:24.465Z,967.6
2017-06-15T03:04:24.461Z,967.56
2017-06-15T03:05:24.462Z,967.58
2017-06-15T03:06:24.459Z,967.56
2017-06-15T03:07:24.459Z,967.59
2017-06-15T03:08:24.456Z,967.59
2017-06-15T03:09:24.455Z,967.63
2017-06-15T03:10:24.453Z,967.63
2017-06-15T03:11:24.452Z,967.67
2017-06-15T03:12:24.449Z,967.66
2017-06-15T03:13:24.447Z,967.66
2017-06-15T03:14:24.446Z,967.67
2017-06-15T03:15:24.446Z,967.68
2017-06-15T03:16:24.445Z,967.73
2017-06-15T03:17:24.442Z,967.72
2017-06-15T03:18:24.442Z,967.67
2017-06-15T03:19:24.439Z,967.67
2017-06-15T03:20:24.439Z,967.65
2017-06-15T03:21:24.437Z,967.64
2017-06-15T03:22:24.435Z,967.66
2017-06-15T03:23:24.432Z,967.66
2017-06-15T03:24:24.432Z,967.67
2017-06-15T03:25:24.432Z,967.69
2017-06-15T03:26:24.429Z,967.69
2017-06-15T03:27:24.427Z,967.71
2017-06-15T03:28:24.426Z,967.71
2017-06-15T03:29:24.424Z,967.72
2017-06-15T03:30:24.423Z,967.75
2017-06-15T03:31:24.422Z,967.74
2017-06-15T03:32:24.421Z,967.75
2017-06-15T03:33:24.418Z,967.77
2017-06-15T03:34:24.417Z,967.76
2017-06-15T03:35:24.414Z,967.84
2017-06-15T03:36:24.420Z,967.8
2017-06-15T03:37:24.412Z,967.82
2017-06-15T03:38:24.412Z,967.82
2017-06-15T03:39:24.411Z,967.88
2017-06-15T03:40:24.408Z,967.86
2017-06-15T03:41:24.406Z,967.86
2017-06-15T03:42:24.405Z,967.83
2017-06-15T03:43:24.405Z,967.82
2017-06-15T03:44:24.400Z,967.86
2017-06-15T03:45:24.401Z,967.84
2017-06-15T03:46:24.398Z,967.84
2017-06-15T03:47:24.397Z,967.85
2017-06-15T03:48:24.395Z,967.84
2017-06-15T03:49:24.395Z,967.87
2017-06-15T03:50:24.394Z,967.88
2017-06-15T03:51:24.393Z,967.85
2017-06-15T03:52:24.388Z,967.88
2017-06-15T03:53:24.389Z,967.88
2017-06-15T03:54:24.388Z,967.9
2017-06-15T03:55:24.386Z,967.89
2017-06-15T03:56:24.384Z,967.89
2017-06-15T03:57:24.383Z,967.88
2017-06-15T03:58:24.381Z,967.91
2017-06-15T03:59:24.379Z,967.91
2017-06-15T04:00:24.378Z,967.92
2017-06-15T04:01:24.377Z,967.91
2017-06-15T04:02:24.376Z,967.92
2017-06-15T04:03:24.373Z,967.98
2017-06-15T04:04:24.373Z,967.94
2017-06-15T04:05:24.370Z,967.98
2017-06-15T04:06:24.369Z,967.95
2017-06-15T04:07:24.368Z,968.01
2017-06-15T04:08:24.368Z,967.99
2017-06-15T04:09:24.365Z,967.97
2017-06-15T04:10:24.364Z,967.99
2017-06-15T04:11:24.362Z,968
2017-06-15T04:12:24.360Z,968.03
2017-06-15T04:13:24.360Z,968
2017-06-15T04:14:24.358Z,968.01
2017-06-15T04:15:24.356Z,968.04
2017-06-15T04:16:24.356Z,968.03
2017-06-15T04:17:24.355Z,968.05
2017-06-15T04:18:24.354Z,968.02
2017-06-15T04:19:24.351Z,968.03
2017-06-15T04:20:24.351Z,968.05
2017-06-15T04:21:24.349Z,968.04
2017-06-15T04:22:24.350Z,968.07
2017-06-15T04:23:24.347Z,968.03
2017-06-15T04:24:24.345Z,968.1
2017-06-15T04:25:24.343Z,968.06
2017-06-15T04:26:24.342Z,968.08
2017-06-15T04:27:24.341Z,968.03
2017-06-15T04:28:24.339Z,968.05
2017-06-15T04:29:24.338Z,968.04
2017-06-15T04:30:24.338Z,968.02
2017-06-15T04:31:24.335Z,968.03
2017-06-15T04:32:24.333Z,968.08
2017-06-15T04:33:24.333Z,968.03
2017-06-15T04:34:24.332Z,968.05
2017-06-15T04:35:24.330Z,968.03
2017-06-15T04:36:24.328Z,968.05
2017-06-15T04:37:24.327Z,968.07
2017-06-15T04:38:24.325Z,968.03
2017-06-15T04:39:24.324Z,968.06
2017-06-15T04:40:24.324Z,968.08
2017-06-15T04:41:24.323Z,968.1
2017-06-15T04:42:24.321Z,968.08
2017-06-15T04:43:24.322Z,968.11
2017-06-15T04:44:24.320Z,968.12
2017-06-15T04:45:24.319Z,968.12
2017-06-15T04:46:24.317Z,968.14
2017-06-15T04:47:24.315Z,968.11
2017-06-15T04:48:24.313Z,968.1
2017-06-15T04:49:24.312Z,968.11
2017-06-15T04:50:24.311Z,968.1
2017-06-15T04:51:24.313Z,968.08
2017-06-15T04:52:24.309Z,968.07
2017-06-15T04:53:24.308Z,968.02
2017-06-15T04:54:24.305Z,968.07
2017-06-15T04:55:24.306Z,968.09
2017-06-15T04:56:24.307Z,968.11
2017-06-15T04:57:24.304Z,968.1
2017-06-15T04:58:24.304Z,968.06
2017-06-15T04:59:24.304Z,968.09
2017-06-15T05:00:24.301Z,968.1
2017-06-15T05:01:24.303Z,968.05
2017-06-15T05:02:24.301Z,968.05
2017-06-15T05:03:24.301Z,968.06
2017-06-15T05:04:24.301Z,968.08
2017-06-15T05:05:24.300Z,968.09
2017-06-15T05:06:24.301Z,968.08
2017-06-15T05:07:24.300Z,968.13
2017-06-15T05:08:24.301Z,968.1
2017-06-15T05:09:24.301Z,968.09
2017-06-15T05:10:24.299Z,968.08
2017-06-15T05:11:24.301Z,968.08
2017-06-15T05:12:24.302Z,968.07
2017-06-15T05:13:24.302Z,968.08
2017-06-15T05:14:24.302Z,968.1
2017-06-15T05:15:24.301Z,968.13
2017-06-15T05:16:24.302Z,968.12
2017-06-15T05:17:24.303Z,968.13
2017-06-15T05:18:24.305Z,968.13
2017-06-15T05:19:24.303Z,968.08
2017-06-15T05:20:24.305Z,968.12
2017-06-15T05:21:24.306Z,968.14
2017-06-15T05:22:24.307Z,968.08
2017-06-15T05:23:24.309Z,968.1
2017-06-15T05:24:24.309Z,968.11
2017-06-15T05:25:24.311Z,968.11
2017-06-15T05:26:24.313Z,968.09
2017-06-15T05:27:24.311Z,968.06
2017-06-15T05:28:24.314Z,967.99
2017-06-15T05:29:24.315Z,968.03
2017-06-15T05:30:24.316Z,968.05
2017-06-15T05:31:24.317Z,968.04
2017-06-15T05:32:24.319Z,968.05
2017-06-15T05:33:24.318Z,968.06
2017-06-15T05:34:24.321Z,968.05
2017-06-15T05:35:24.323Z,968.04
2017-06-15T05:36:24.324Z,968.05
2017-06-15T05:37:24.327Z,968.06
2017-06-15T05:38:24.326Z,968.07
2017-06-15T05:39:24.329Z,968.05
2017-06-15T05:40:24.333Z,968
2017-06-15T05:41:24.333Z,968.05
2017-06-15T05:42:24.336Z,968.03
2017-06-15T05:43:24.337Z,968.02
2017-06-15T05:44:24.340Z,968.05
2017-06-15T05:45:24.341Z,968.06
2017-06-15T05:46:24.345Z,968.03
2017-06-15T05:47:24.347Z,968.03
2017-06-15T05:48:24.348Z,968.06
2017-06-15T05:49:24.356Z,968.04
2017-06-15T05:50:24.355Z,968.06
2017-06-15T05:51:24.359Z,968.05
2017-06-15T05:52:24.359Z,968.08
2017-06-15T05:53:24.364Z,968.06
2017-06-15T05:54:24.366Z,968.09
2017-06-15T05:55:24.368Z,968.09
2017-06-15T05:56:24.372Z,968.11
2017-06-15T05:57:24.375Z,968.07
2017-06-15T05:58:24.379Z,968.14
2017-06-15T05:59:24.381Z,968.13
2017-06-15T06:00:24.383Z,968.12
2017-06-15T06:01:24.388Z,968.12
2017-06-15T06:02:24.392Z,968.1
2017-06-15T06:03:24.394Z,968.1
2017-06-15T06:04:24.398Z,968.11
2017-06-15T06:05:24.403Z,968.14
2017-06-15T06:06:24.407Z,968.18
2017-06-15T06:07:24.408Z,968.19
2017-06-15T06:08:24.415Z,968.18
2017-06-15T06:09:24.417Z,968.17
2017-06-15T06:10:24.421Z,968.23
2017-06-15T06:11:24.423Z,968.24
2017-06-15T06:12:24.430Z,968.26
2017-06-15T06:13:24.433Z,968.3
2017-06-15T06:14:24.437Z,968.28
2017-06-15T06:15:24.438Z,968.32
2017-06-15T06:16:24.444Z,968.32
2017-06-15T06:17:24.448Z,968.35
2017-06-15T06:18:24.450Z,968.36
2017-06-15T06:19:24.455Z,968.34
2017-06-15T06:20:24.461Z,968.33
2017-06-15T06:21:24.465Z,968.35
2017-06-15T06:22:24.470Z,968.3
2017-06-15T06:23:24.475Z,968.29
2017-06-15T06:24:24.477Z,968.28
2017-06-15T06:25:24.480Z,968.28
2017-06-15T06:26:24.485Z,968.31
2017-06-15T06:27:24.491Z,968.33
2017-06-15T06:28:24.496Z,968.28
2017-06-15T06:29:24.499Z,968.29
2017-06-15T06:30:24.502Z,968.3
2017-06-15T06:31:24.506Z,968.31
2017-06-15T06:32:24.511Z,968.36
2017-06-15T06:33:24.516Z,968.33
2017-06-15T06:34:24.519Z,968.38
2017-06-15T06:35:24.524Z,968.34
2017-06-15T06:36:24.528Z,968.34
2017-06-15T06:37:24.531Z,968.37
2017-06-15T06:38:24.537Z,968.29
2017-06-15T06:39:24.542Z,968.33
2017-06-15T06:40:24.747Z,968.34
2017-06-15T06:41:24.550Z,968.37
2017-06-15T06:42:24.552Z,968.33
2017-06-15T06:43:24.557Z,968.36
2017-06-15T06:44:24.561Z,968.36
2017-06-15T06:45:24.565Z,968.39
2017-06-15T06:46:24.569Z,968.39
2017-06-15T06:47:24.572Z,968.39
2017-06-15T06:48:24.575Z,968.41
2017-06-15T06:49:24.580Z,968.44
2017-06-15T06:50:24.585Z,968.43
2017-06-15T06:51:24.587Z,968.44
2017-06-15T06:52:24.592Z,968.45
2017-06-15T06:53:24.595Z,968.46
2017-06-15T06:54:24.598Z,968.41
2017-06-15T06:55:24.602Z,968.41
2017-06-15T06:56:24.605Z,968.42
2017-06-15T06:57:24.613Z,968.45
2017-06-15T06:58:24.612Z,968.4
2017-06-15T06:59:24.615Z,968.43
2017-06-15T07:00:24.620Z,968.43
2017-06-15T07:01:24.623Z,968.46
2017-06-15T07:02:24.626Z,968.48
2017-06-15T07:03:24.629Z,968.49
2017-06-15T07:04:24.631Z,968.51
2017-06-15T07:05:24.634Z,968.48
2017-06-15T07:06:24.638Z,968.48
2017-06-15T07:07:24.641Z,968.5
2017-06-15T07:08:24.644Z,968.48
2017-06-15T07:09:24.648Z,968.5
2017-06-15T07:10:24.651Z,968.47
2017-06-15T07:11:24.654Z,968.47
2017-06-15T07:12:24.656Z,968.47
2017-06-15T07:13:24.659Z,968.47
2017-06-15T07:14:24.664Z,968.48
2017-06-15T07:15:24.663Z,968.46
2017-06-15T07:16:24.666Z,968.47
2017-06-15T07:17:24.670Z,968.52
2017-06-15T07:18:24.672Z,968.49
2017-06-15T07:19:24.675Z,968.5
2017-06-15T07:20:24.678Z,968.5
2017-06-15T07:21:24.680Z,968.5
2017-06-15T07:22:24.682Z,968.47
2017-06-15T07:23:24.685Z,968.45
2017-06-15T07:24:24.688Z,968.47
2017-06-15T07:25:24.690Z,968.48
2017-06-15T07:26:24.693Z,968.46
2017-06-15T07:27:24.697Z,968.44
2017-06-15T07:28:24.698Z,968.45
2017-06-15T07:29:24.698Z,968.42
2017-06-15T07:30:24.700Z,968.41
2017-06-15T07:31:24.702Z,968.42
2017-06-15T07:32:24.705Z,968.39
2017-06-15T07:33:24.709Z,968.39
2017-06-15T07:34:24.707Z,968.41
2017-06-15T07:35:24.712Z,968.44
2017-06-15T07:36:24.714Z,968.44
2017-06-15T07:37:24.717Z,968.46
2017-06-15T07:38:24.718Z,968.45
2017-06-15T07:39:24.721Z,968.45
2017-06-15T07:40:24.722Z,968.43
2017-06-15T07:41:24.727Z,968.44
2017-06-15T07:42:24.726Z,968.4
2017-06-15T07:43:24.730Z,968.39
2017-06-15T07:44:24.731Z,968.41
2017-06-15T07:45:24.731Z,968.41
2017-06-15T07:46:24.735Z,968.37
2017-06-15T07:47:24.735Z,968.37
2017-06-15T07:48:24.739Z,968.38
2017-06-15T07:49:24.741Z,968.37
2017-06-15T07:50:24.742Z,968.34
2017-06-15T07:51:24.748Z,968.34
2017-06-15T07:52:24.745Z,968.32
2017-06-15T07:53:24.748Z,968.32
2017-06-15T07:54:24.752Z,968.29
2017-06-15T07:55:24.754Z,968.33
2017-06-15T07:56:24.755Z,968.3
2017-06-15T07:57:24.755Z,968.33
2017-06-15T07:58:24.758Z,968.3
2017-06-15T07:59:24.759Z,968.31
2017-06-15T08:00:24.763Z,968.29
2017-06-15T08:01:24.764Z,968.31
2017-06-15T08:02:24.765Z,968.25
2017-06-15T08:03:24.768Z,968.26
2017-06-15T08:04:24.769Z,968.23
2017-06-15T08:05:24.771Z,968.23
2017-06-15T08:06:24.774Z,968.23
2017-06-15T08:07:24.773Z,968.23
2017-06-15T08:08:24.777Z,968.22
2017-06-15T08:09:24.779Z,968.24
2017-06-15T08:10:24.778Z,968.23
2017-06-15T08:11:24.780Z,968.19
2017-06-15T08:12:24.782Z,968.2
2017-06-15T08:13:24.785Z,968.19
2017-06-15T08:14:24.787Z,968.19
2017-06-15T08:15:24.786Z,968.2
2017-06-15T08:16:24.789Z,968.18
2017-06-15T08:17:24.791Z,968.19
2017-06-15T08:18:24.791Z,968.2
2017-06-15T08:19:24.793Z,968.21
2017-06-15T08:20:24.796Z,968.2
2017-06-15T08:21:24.798Z,968.23
2017-06-15T08:22:24.797Z,968.24
2017-06-15T08:23:24.798Z,968.23
2017-06-15T08:24:24.801Z,968.27
2017-06-15T08:25:24.801Z,968.26
2017-06-15T08:26:24.803Z,968.31
2017-06-15T08:27:24.804Z,968.31
2017-06-15T08:28:24.807Z,968.31
2017-06-15T08:29:24.805Z,968.32
2017-06-15T08:30:24.807Z,968.34
2017-06-15T08:31:24.809Z,968.32
2017-06-15T08:32:24.810Z,968.32
2017-06-15T08:33:24.812Z,968.33
2017-06-15T08:34:24.814Z,968.31
2017-06-15T08:35:24.816Z,968.34
2017-06-15T08:36:24.816Z,968.32
2017-06-15T08:37:24.815Z,968.34
2017-06-15T08:38:24.817Z,968.31
2017-06-15T08:39:24.820Z,968.31
2017-06-15T08:40:24.819Z,968.3
2017-06-15T08:41:24.820Z,968.32
2017-06-15T08:42:24.848Z,968.31
2017-06-15T08:43:24.823Z,968.31
2017-06-15T08:44:24.823Z,968.32
2017-06-15T08:45:24.825Z,968.31
2017-06-15T08:46:24.826Z,968.32
2017-06-15T08:47:24.825Z,968.34
2017-06-15T08:48:24.827Z,968.36
2017-06-15T08:49:24.829Z,968.34
2017-06-15T08:50:24.829Z,968.36
2017-06-15T08:51:24.830Z,968.35
2017-06-15T08:52:24.830Z,968.35
2017-06-15T08:53:24.830Z,968.37
2017-06-15T08:54:24.834Z,968.35
2017-06-15T08:55:24.834Z,968.35
2017-06-15T08:56:24.835Z,968.34
2017-06-15T08:57:24.836Z,968.34
2017-06-15T08:58:24.837Z,968.33
2017-06-15T08:59:24.837Z,968.34
2017-06-15T09:00:24.839Z,968.37
2017-06-15T09:01:24.841Z,968.37
2017-06-15T09:02:24.840Z,968.42
2017-06-15T09:03:24.845Z,968.39
2017-06-15T09:04:24.841Z,968.44
2017-06-15T09:05:24.841Z,968.41
2017-06-15T09:06:24.852Z,968.42
2017-06-15T09:07:24.845Z,968.46
2017-06-15T09:08:24.845Z,968.43
2017-06-15T09:09:24.846Z,968.48
2017-06-15T09:10:24.845Z,968.46
2017-06-15T09:11:24.846Z,968.45
2017-06-15T09:12:24.849Z,968.44
2017-06-15T09:13:24.849Z,968.42
2017-06-15T09:14:24.847Z,968.43
2017-06-15T09:15:24.849Z,968.49
2017-06-15T09:16:24.851Z,968.45
2017-06-15T09:17:24.852Z,968.44
2017-06-15T09:18:24.851Z,968.45
2017-06-15T09:19:24.852Z,968.42
2017-06-15T09:20:24.851Z,968.45
2017-06-15T09:21:24.853Z,968.43
2017-06-15T09:22:24.853Z,968.43
2017-06-15T09:23:24.855Z,968.39
2017-06-15T09:24:24.854Z,968.42
2017-06-15T09:25:24.856Z,968.41
2017-06-15T09:26:24.857Z,968.37
2017-06-15T09:27:24.857Z,968.38
2017-06-15T09:28:24.856Z,968.38
2017-06-15T09:29:24.860Z,968.37
2017-06-15T09:30:24.859Z,968.32
2017-06-15T09:31:24.859Z,968.35
2017-06-15T09:32:24.858Z,968.36
2017-06-15T09:33:24.860Z,968.35
2017-06-15T09:34:24.860Z,968.34
2017-06-15T09:35:24.863Z,968.35
2017-06-15T09:36:24.862Z,968.34
2017-06-15T09:37:24.864Z,968.33
2017-06-15T09:38:24.862Z,968.34
2017-06-15T09:39:24.862Z,968.29
2017-06-15T09:40:24.865Z,968.27
2017-06-15T09:41:24.866Z,968.36
2017-06-15T09:42:24.864Z,968.31
2017-06-15T09:43:24.865Z,968.24
2017-06-15T09:44:24.865Z,968.28
2017-06-15T09:45:24.866Z,968.27
2017-06-15T09:46:24.867Z,968.25
2017-06-15T09:47:24.867Z,968.22
2017-06-15T09:48:24.868Z,968.21
2017-06-15T09:49:24.866Z,968.2
2017-06-15T09:50:24.868Z,968.19
2017-06-15T09:51:24.868Z,968.18
2017-06-15T09:52:24.870Z,968.19
2017-06-15T09:53:24.870Z,968.2
2017-06-15T09:54:24.869Z,968.2
2017-06-15T09:55:24.870Z,968.19
2017-06-15T09:56:24.871Z,968.19
2017-06-15T09:57:24.870Z,968.18
2017-06-15T09:58:24.871Z,968.16
2017-06-15T09:59:24.873Z,968.18
2017-06-15T10:00:24.873Z,968.17
2017-06-15T10:01:24.871Z,968.19
2017-06-15T10:02:24.872Z,968.19
2017-06-15T10:03:24.874Z,968.18
2017-06-15T10:04:24.873Z,968.2
2017-06-15T10:05:24.874Z,968.12
2017-06-15T10:06:24.874Z,968.15
2017-06-15T10:07:24.875Z,968.12
2017-06-15T10:08:24.875Z,968.11
2017-06-15T10:09:24.876Z,968.1
2017-06-15T10:10:24.877Z,968.09
2017-06-15T10:11:24.877Z,968.11
2017-06-15T10:12:24.875Z,968.11
2017-06-15T10:13:24.875Z,968.1
2017-06-15T10:14:24.878Z,968.11
2017-06-15T10:15:24.877Z,968.11
2017-06-15T10:16:24.877Z,968.1
2017-06-15T10:17:24.878Z,968.08
2017-06-15T10:18:24.878Z,968.13
2017-06-15T10:19:24.877Z,968.13
2017-06-15T10:20:24.877Z,968.14
2017-06-15T10:21:24.878Z,968.14
2017-06-15T10:22:24.878Z,968.14
2017-06-15T10:23:24.881Z,968.13
2017-06-15T10:24:24.879Z,968.15
2017-06-15T10:25:24.881Z,968.19
2017-06-15T10:26:24.879Z,968.13
2017-06-15T10:27:24.882Z,968.13
2017-06-15T10:28:24.881Z,968.13
2017-06-15T10:29:24.882Z,968.1
2017-06-15T10:30:24.881Z,968.12
2017-06-15T10:31:24.882Z,968.12
2017-06-15T10:32:24.882Z,968.09
2017-06-15T10:33:24.882Z,968.14
2017-06-15T10:34:24.883Z,968.07
2017-06-15T10:35:24.883Z,968.1
2017-06-15T10:36:24.885Z,968.12
2017-06-15T10:37:24.885Z,968.08
2017-06-15T10:38:24.884Z,968.06
2017-06-15T10:39:24.885Z,968.07
2017-06-15T10:40:24.885Z,968.03
2017-06-15T10:41:24.885Z,968.05
2017-06-15T10:42:24.887Z,968.03
2017-06-15T10:43:24.887Z,968.02
2017-06-15T10:44:24.886Z,968.03
2017-06-15T10:45:24.886Z,968.04
2017-06-15T10:46:24.886Z,968.02
2017-06-15T10:47:24.887Z,967.99
2017-06-15T10:48:24.887Z,967.99
2017-06-15T10:49:24.886Z,967.97
2017-06-15T10:50:24.887Z,968.01
2017-06-15T10:51:24.889Z,967.99
2017-06-15T10:52:24.887Z,967.99
2017-06-15T10:53:24.888Z,968
2017-06-15T10:54:24.889Z,967.96
2017-06-15T10:55:24.888Z,967.97
2017-06-15T10:56:24.887Z,967.96
2017-06-15T10:57:24.887Z,967.99
2017-06-15T10:58:24.889Z,967.97
2017-06-15T10:59:24.888Z,967.94
2017-06-15T11:00:24.890Z,967.95
2017-06-15T11:01:24.890Z,967.99
2017-06-15T11:02:24.891Z,967.93
2017-06-15T11:03:24.891Z,967.88
2017-06-15T11:04:24.888Z,967.89
2017-06-15T11:05:24.890Z,967.89
2017-06-15T11:06:24.890Z,967.91
2017-06-15T11:07:24.891Z,967.94
2017-06-15T11:08:24.891Z,967.87
2017-06-15T11:09:24.892Z,967.92
2017-06-15T11:10:24.892Z,967.9
2017-06-15T11:11:24.892Z,967.92
2017-06-15T11:12:24.894Z,967.91
2017-06-15T11:13:24.894Z,967.9
2017-06-15T11:14:24.893Z,967.91
2017-06-15T11:15:24.893Z,967.88
2017-06-15T11:16:24.893Z,967.89
2017-06-15T11:17:24.892Z,967.9
2017-06-15T11:18:24.894Z,967.89
2017-06-15T11:19:24.894Z,967.93
2017-06-15T11:20:24.894Z,967.95
2017-06-15T11:21:24.893Z,967.87
2017-06-15T11:22:24.894Z,967.91
2017-06-15T11:23:24.895Z,967.93
2017-06-15T11:24:24.896Z,967.88
2017-06-15T11:25:24.894Z,967.86
2017-06-15T11:26:24.895Z,967.89
2017-06-15T11:27:24.895Z,967.87
2017-06-15T11:28:24.895Z,967.88
2017-06-15T11:29:24.896Z,967.87
2017-06-15T11:30:24.896Z,967.86
2017-06-15T11:31:24.895Z,967.89
2017-06-15T11:32:24.896Z,967.88
2017-06-15T11:33:24.898Z,967.82
2017-06-15T11:34:24.898Z,967.82
2017-06-15T11:35:24.899Z,967.84
2017-06-15T11:36:24.896Z,967.83
2017-06-15T11:37:24.898Z,967.9
2017-06-15T11:38:24.900Z,967.82
2017-06-15T11:39:24.898Z,967.82
2017-06-15T11:40:24.898Z,967.85
2017-06-15T11:41:24.899Z,967.79
2017-06-15T11:42:24.902Z,967.74
2017-06-15T11:43:24.898Z,967.74
2017-06-15T11:44:24.899Z,967.71
2017-06-15T11:45:24.897Z,967.76
2017-06-15T11:46:24.900Z,967.78
2017-06-15T11:47:24.897Z,967.8
2017-06-15T11:48:24.899Z,967.79
2017-06-15T11:49:24.901Z,967.82
2017-06-15T11:50:24.899Z,967.79
2017-06-15T11:51:24.902Z,967.73
2017-06-15T11:52:24.901Z,967.72
2017-06-15T11:53:24.902Z,967.74
2017-06-15T11:54:24.900Z,967.74
2017-06-15T11:55:24.901Z,967.7
2017-06-15T11:56:24.903Z,967.67
2017-06-15T11:57:24.901Z,967.72
2017-06-15T11:58:24.902Z,967.73
2017-06-15T11:59:24.901Z,967.76
2017-06-15T12:00:24.903Z,967.69
2017-06-15T12:01:24.902Z,967.72
2017-06-15T12:02:24.902Z,967.71
2017-06-15T12:03:24.901Z,967.69
2017-06-15T12:04:24.902Z,967.7
2017-06-15T12:05:24.900Z,967.68
2017-06-15T12:06:24.906Z,967.69
2017-06-15T12:07:24.902Z,967.69
2017-06-15T12:08:24.904Z,967.67
2017-06-15T12:09:24.903Z,967.62
2017-06-15T12:10:24.904Z,967.6
2017-06-15T12:11:24.906Z,967.57
2017-06-15T12:12:24.904Z,967.56
2017-06-15T12:13:24.904Z,967.54
2017-06-15T12:14:24.906Z,967.53
2017-06-15T12:15:24.906Z,967.56
2017-06-15T12:16:24.905Z,967.55
2017-06-15T12:17:24.904Z,967.6
2017-06-15T12:18:24.906Z,967.61
2017-06-15T12:19:24.904Z,967.56
2017-06-15T12:20:24.906Z,967.59
2017-06-15T12:21:24.907Z,967.52
2017-06-15T12:22:24.906Z,967.51
2017-06-15T12:23:24.906Z,967.55
2017-06-15T12:24:24.907Z,967.52
2017-06-15T12:25:24.906Z,967.45
2017-06-15T12:26:24.907Z,967.49
2017-06-15T12:27:24.905Z,967.47
2017-06-15T12:28:24.904Z,967.46
2017-06-15T12:29:24.911Z,967.44
2017-06-15T12:30:24.906Z,967.44
2017-06-15T12:31:24.908Z,967.45